Time;durP1;ratioP1;P1;durP2;ratioP2;P2;SDS_P1;SDS_P2;PMS_P1;PMS_P2;Temp;Humidity;BMP_temperature;BMP_pressure;BME280_temperature;BME280_humidity;BME280_pressure;Samples;Min_cycle;Max_cycle;Signal;HPM_P1;HPM_P2
2023/09/30 00:00:22;;;;;;;7.05;3.22;;;;;;;;;;5011230;28;20219;-73
2023/09/30 00:02:49;;;;;;;5.25;3.30;;;;;;;;;;5015874;28;20203;-73
2023/09/30 00:05:19;;;;;;;6.50;3.50;;;;;;;;;;5017280;28;20269;-74
2023/09/30 00:07:46;;;;;;;5.13;3.00;;;;;;;;;;5012755;28;20405;-73
2023/09/30 00:10:15;;;;;;;5.60;3.20;;;;;;;;;;5018796;28;20196;-73
2023/09/30 00:12:43;;;;;;;5.78;3.20;;;;;;;;;;5020515;28;20227;-73
2023/09/30 00:15:10;;;;;;;2.88;2.40;;;;;;;;;;5021067;28;20211;-73
2023/09/30 00:17:37;;;;;;;5.18;3.05;;;;;;;;;;5021089;28;20196;-70
2023/09/30 00:20:05;;;;;;;5.07;2.90;;;;;;;;;;5018024;28;20205;-73
2023/09/30 00:22:32;;;;;;;5.63;3.15;;;;;;;;;;5019357;28;20207;-73
2023/09/30 00:25:00;;;;;;;4.22;3.17;;;;;;;;;;5023713;28;20215;-73
2023/09/30 00:27:29;;;;;;;3.63;3.00;;;;;;;;;;5023971;28;20235;-73
2023/09/30 00:29:56;;;;;;;4.35;3.45;;;;;;;;;;5021188;28;20200;-73
2023/09/30 00:32:23;;;;;;;5.32;3.30;;;;;;;;;;5026004;28;20220;-74
2023/09/30 00:34:52;;;;;;;4.38;3.00;;;;;;;;;;5021529;28;20296;-73
2023/09/30 00:37:19;;;;;;;3.88;2.90;;;;;;;;;;5024662;28;20208;-71
2023/09/30 00:39:46;;;;;;;3.40;3.10;;;;;;;;;;5023543;28;20204;-73
2023/09/30 00:42:13;;;;;;;3.92;2.85;;;;;;;;;;5021543;28;20196;-72
2023/09/30 00:44:41;;;;;;;4.15;3.45;;;;;;;;;;5024785;28;20208;-73
2023/09/30 00:47:10;;;;;;;4.15;3.20;;;;;;;;;;5023864;28;20204;-66
2023/09/30 00:49:37;;;;;;;5.03;3.55;;;;;;;;;;5021646;28;20284;-66
2023/09/30 00:52:04;;;;;;;3.58;2.95;;;;;;;;;;5021696;28;20237;-65
2023/09/30 00:54:32;;;;;;;4.57;3.10;;;;;;;;;;5020390;28;20204;-66
2023/09/30 00:57:00;;;;;;;4.05;3.08;;;;;;;;;;5021533;28;20201;-66
2023/09/30 00:59:28;;;;;;;3.63;2.88;;;;;;;;;;5024695;28;20215;-67
2023/09/30 01:01:58;;;;;;;4.47;3.15;;;;;;;;;;5023219;28;20201;-66
2023/09/30 01:04:26;;;;;;;3.97;2.90;;;;;;;;;;5029517;28;20216;-65
2023/09/30 01:06:53;;;;;;;4.80;3.20;;;;;;;;;;5026155;28;20288;-66
2023/09/30 01:09:21;;;;;;;4.75;2.97;;;;;;;;;;5019514;28;20215;-66
2023/09/30 01:11:49;;;;;;;4.47;3.03;;;;;;;;;;5024156;28;20209;-66
2023/09/30 01:14:25;;;;;;;4.78;3.13;;;;;;;;;;5021442;28;20203;-67
2023/09/30 01:16:52;;;;;;;5.72;3.55;;;;;;;;;;5022100;28;20231;-65
2023/09/30 01:19:21;;;;;;;5.03;3.00;;;;;;;;;;5020141;28;20212;-66
2023/09/30 01:21:49;;;;;;;3.65;3.17;;;;;;;;;;5021106;28;20205;-65
2023/09/30 01:24:17;;;;;;;5.65;3.33;;;;;;;;;;5022255;28;20205;-66
2023/09/30 01:26:44;;;;;;;5.60;3.13;;;;;;;;;;5024496;28;20239;-66
2023/09/30 01:29:11;;;;;;;5.35;3.53;;;;;;;;;;5024321;28;20232;-66
2023/09/30 01:31:39;;;;;;;4.03;3.33;;;;;;;;;;5026200;28;20208;-66
2023/09/30 01:34:07;;;;;;;3.88;3.22;;;;;;;;;;5020162;28;20232;-65
2023/09/30 01:36:34;;;;;;;3.55;3.25;;;;;;;;;;5024460;28;20244;-66
2023/09/30 01:39:03;;;;;;;3.25;2.92;;;;;;;;;;5020273;28;20236;-66
2023/09/30 01:41:30;;;;;;;4.28;2.88;;;;;;;;;;5021209;28;20216;-66
2023/09/30 01:43:57;;;;;;;5.00;3.30;;;;;;;;;;5021397;28;20227;-65
2023/09/30 01:46:24;;;;;;;5.78;3.35;;;;;;;;;;5023476;28;20263;-65
2023/09/30 01:48:51;;;;;;;7.63;3.97;;;;;;;;;;5021694;28;20211;-66
2023/09/30 01:51:19;;;;;;;7.32;3.05;;;;;;;;;;5022124;28;20212;-66
2023/09/30 01:53:46;;;;;;;4.13;2.67;;;;;;;;;;5020608;28;20220;-66
2023/09/30 01:56:14;;;;;;;7.43;3.38;;;;;;;;;;5024410;28;20204;-66
2023/09/30 01:58:41;;;;;;;5.55;3.10;;;;;;;;;;5022891;28;20209;-66
2023/09/30 02:01:09;;;;;;;4.93;3.15;;;;;;;;;;5021309;28;20213;-66
2023/09/30 02:03:36;;;;;;;3.20;2.65;;;;;;;;;;5020758;28;20197;-66
2023/09/30 02:06:03;;;;;;;5.57;3.03;;;;;;;;;;5020788;28;20565;-66
2023/09/30 02:08:31;;;;;;;4.53;3.30;;;;;;;;;;5020023;28;20201;-65
2023/09/30 02:10:58;;;;;;;4.45;3.15;;;;;;;;;;5021271;28;20216;-66
2023/09/30 02:13:27;;;;;;;5.43;2.88;;;;;;;;;;5019827;28;20224;-66
2023/09/30 02:15:55;;;;;;;2.97;2.70;;;;;;;;;;5022315;28;20232;-67
2023/09/30 02:18:23;;;;;;;4.00;2.97;;;;;;;;;;5020059;28;20204;-66
2023/09/30 02:20:50;;;;;;;4.97;3.50;;;;;;;;;;5017263;28;20267;-66
2023/09/30 02:23:18;;;;;;;5.28;3.45;;;;;;;;;;5019504;28;20287;-66
2023/09/30 02:25:46;;;;;;;4.43;3.38;;;;;;;;;;5020428;28;20236;-66
2023/09/30 02:28:13;;;;;;;5.25;3.13;;;;;;;;;;5021753;28;20208;-66
2023/09/30 02:30:41;;;;;;;4.82;3.42;;;;;;;;;;5016972;28;20207;-66
2023/09/30 02:33:09;;;;;;;3.92;3.38;;;;;;;;;;5022362;28;20267;-66
2023/09/30 02:35:38;;;;;;;4.53;3.10;;;;;;;;;;5018889;28;20296;-66
2023/09/30 02:38:06;;;;;;;5.43;2.88;;;;;;;;;;5023532;28;20282;-66
2023/09/30 02:40:33;;;;;;;4.32;3.33;;;;;;;;;;5019438;28;20212;-66
2023/09/30 02:43:00;;;;;;;5.22;3.55;;;;;;;;;;5020770;28;20212;-66
2023/09/30 02:45:28;;;;;;;5.35;3.72;;;;;;;;;;5021487;28;20213;-66
2023/09/30 02:47:56;;;;;;;4.55;3.42;;;;;;;;;;5023277;28;20204;-66
2023/09/30 02:50:23;;;;;;;5.63;3.58;;;;;;;;;;5021671;28;20209;-66
2023/09/30 02:52:50;;;;;;;6.25;4.10;;;;;;;;;;5021992;28;20220;-66
2023/09/30 02:55:17;;;;;;;4.40;3.45;;;;;;;;;;5019054;28;20201;-66
2023/09/30 02:57:46;;;;;;;4.32;3.38;;;;;;;;;;5021811;28;20204;-66
2023/09/30 03:00:23;;;;;;;3.15;2.95;;;;;;;;;;5020024;28;20204;-66
2023/09/30 03:02:50;;;;;;;4.35;3.22;;;;;;;;;;5022528;28;20211;-66
2023/09/30 03:05:19;;;;;;;3.72;3.38;;;;;;;;;;5026555;28;20208;-66
2023/09/30 03:07:47;;;;;;;4.38;3.20;;;;;;;;;;5017370;28;20235;-72
2023/09/30 03:10:19;;;;;;;5.30;3.15;;;;;;;;;;5022214;28;20245;-73
2023/09/30 03:12:47;;;;;;;5.45;3.40;;;;;;;;;;5022516;28;20234;-73
2023/09/30 03:15:14;;;;;;;5.95;3.15;;;;;;;;;;5019323;28;20200;-74
2023/09/30 03:17:41;;;;;;;3.30;2.90;;;;;;;;;;5021461;28;20207;-74
2023/09/30 03:20:11;;;;;;;3.88;3.00;;;;;;;;;;5019657;28;20236;-73
2023/09/30 03:22:40;;;;;;;3.47;2.97;;;;;;;;;;5018272;28;20204;-74
2023/09/30 03:25:08;;;;;;;4.32;3.03;;;;;;;;;;5016676;28;20220;-73
2023/09/30 03:27:36;;;;;;;3.05;2.80;;;;;;;;;;5019176;28;20240;-73
2023/09/30 03:30:03;;;;;;;3.28;3.08;;;;;;;;;;5018356;28;20207;-73
2023/09/30 03:32:31;;;;;;;6.15;3.38;;;;;;;;;;5018591;28;20204;-73
2023/09/30 03:35:00;;;;;;;4.30;3.35;;;;;;;;;;5019905;28;20197;-72
2023/09/30 03:37:28;;;;;;;5.63;3.42;;;;;;;;;;5021359;28;20206;-74
2023/09/30 03:39:56;;;;;;;3.70;3.40;;;;;;;;;;5021496;28;20204;-74
2023/09/30 03:42:23;;;;;;;3.60;3.30;;;;;;;;;;5019102;28;20219;-74
2023/09/30 03:44:51;;;;;;;4.22;3.13;;;;;;;;;;5020996;28;20207;-74
2023/09/30 03:47:18;;;;;;;5.15;3.05;;;;;;;;;;5017337;28;20215;-73
2023/09/30 03:49:45;;;;;;;4.38;3.40;;;;;;;;;;5017258;28;20201;-74
2023/09/30 03:52:13;;;;;;;5.20;2.97;;;;;;;;;;5024034;28;20208;-74
2023/09/30 03:54:41;;;;;;;5.78;3.40;;;;;;;;;;5018318;28;20234;-74
2023/09/30 03:57:12;;;;;;;6.10;3.92;;;;;;;;;;5018748;28;20231;-74
2023/09/30 03:59:40;;;;;;;8.18;3.95;;;;;;;;;;5017528;28;20216;-73
2023/09/30 04:02:08;;;;;;;7.85;4.57;;;;;;;;;;5015192;28;20255;-73
2023/09/30 04:04:36;;;;;;;5.97;4.07;;;;;;;;;;5019405;28;20209;-74
2023/09/30 04:07:05;;;;;;;5.63;4.00;;;;;;;;;;5016964;28;20291;-72
2023/09/30 04:09:32;;;;;;;4.13;3.65;;;;;;;;;;5019071;28;20214;-74
2023/09/30 04:12:01;;;;;;;5.25;3.80;;;;;;;;;;5021447;28;20208;-73
2023/09/30 04:14:29;;;;;;;4.30;3.90;;;;;;;;;;5017582;28;20263;-73
2023/09/30 04:16:56;;;;;;;4.60;3.55;;;;;;;;;;5013552;28;20251;-66
2023/09/30 04:19:23;;;;;;;4.70;3.85;;;;;;;;;;5019354;28;20211;-66
2023/09/30 04:21:50;;;;;;;5.45;4.32;;;;;;;;;;5018207;28;20219;-66
2023/09/30 04:24:19;;;;;;;4.10;3.80;;;;;;;;;;5022298;28;20192;-66
2023/09/30 04:26:46;;;;;;;4.32;4.03;;;;;;;;;;5020864;28;20244;-66
2023/09/30 04:29:14;;;;;;;4.40;4.00;;;;;;;;;;5020085;28;20232;-66
2023/09/30 04:31:43;;;;;;;4.45;3.78;;;;;;;;;;5019369;28;20231;-66
2023/09/30 04:34:11;;;;;;;4.95;4.43;;;;;;;;;;5021343;28;20220;-66
2023/09/30 04:36:38;;;;;;;5.97;4.53;;;;;;;;;;5016547;28;20204;-67
2023/09/30 04:39:05;;;;;;;7.45;4.45;;;;;;;;;;5017909;28;20208;-66
2023/09/30 04:41:32;;;;;;;4.65;4.20;;;;;;;;;;5015190;28;20204;-67
2023/09/30 04:44:00;;;;;;;4.40;3.97;;;;;;;;;;5020714;28;20226;-66
2023/09/30 04:46:27;;;;;;;4.65;4.07;;;;;;;;;;5014314;28;21245;-68
2023/09/30 04:48:56;;;;;;;6.57;4.87;;;;;;;;;;5019749;28;20262;-67
2023/09/30 04:51:25;;;;;;;7.25;4.63;;;;;;;;;;5019966;28;20211;-66
2023/09/30 04:53:54;;;;;;;6.17;4.67;;;;;;;;;;5021665;28;20260;-66
2023/09/30 04:56:21;;;;;;;5.80;4.78;;;;;;;;;;5023043;28;20203;-67
2023/09/30 04:58:48;;;;;;;7.68;4.82;;;;;;;;;;5023478;28;20208;-66
2023/09/30 05:01:18;;;;;;;5.05;4.55;;;;;;;;;;5019917;28;20207;-66
2023/09/30 05:03:48;;;;;;;4.63;4.23;;;;;;;;;;5023537;28;20818;-66
2023/09/30 05:06:17;;;;;;;6.23;4.60;;;;;;;;;;5020334;28;20212;-67
2023/09/30 05:08:45;;;;;;;5.65;4.20;;;;;;;;;;5022829;28;20204;-67
2023/09/30 05:11:12;;;;;;;7.32;4.20;;;;;;;;;;5024187;28;20258;-67
2023/09/30 05:13:40;;;;;;;12.70;4.70;;;;;;;;;;5025601;28;20248;-66
2023/09/30 05:16:07;;;;;;;9.73;4.50;;;;;;;;;;5024624;28;20346;-67
2023/09/30 05:18:35;;;;;;;45.72;5.47;;;;;;;;;;5021935;28;20295;-68
2023/09/30 05:21:03;;;;;;;308.30;11.23;;;;;;;;;;5025137;28;20211;-67
2023/09/30 05:23:32;;;;;;;6.72;5.00;;;;;;;;;;5019537;28;20200;-67
2023/09/30 05:26:00;;;;;;;4.57;4.22;;;;;;;;;;5019925;28;20323;-66
2023/09/30 05:28:28;;;;;;;5.30;4.80;;;;;;;;;;5019242;28;20212;-67
2023/09/30 05:30:55;;;;;;;4.25;3.95;;;;;;;;;;5022446;28;20200;-66
2023/09/30 05:33:23;;;;;;;14.20;4.90;;;;;;;;;;5023600;28;20212;-67
2023/09/30 05:35:51;;;;;;;5.30;4.90;;;;;;;;;;5020640;28;20218;-66
2023/09/30 05:38:19;;;;;;;4.03;3.83;;;;;;;;;;5021700;28;20204;-67
2023/09/30 05:40:49;;;;;;;6.85;4.43;;;;;;;;;;5021197;28;20211;-67
2023/09/30 05:43:16;;;;;;;7.90;4.57;;;;;;;;;;5016265;28;20228;-66
2023/09/30 05:45:49;;;;;;;4.60;4.20;;;;;;;;;;5022696;28;20207;-66
2023/09/30 05:48:16;;;;;;;7.45;4.82;;;;;;;;;;5020901;28;20267;-67
2023/09/30 05:50:43;;;;;;;7.40;4.72;;;;;;;;;;5023089;28;20205;-66
2023/09/30 05:53:11;;;;;;;14.32;5.40;;;;;;;;;;5020206;28;20307;-66
2023/09/30 05:55:41;;;;;;;5.28;4.43;;;;;;;;;;5023989;28;20224;-66
2023/09/30 05:58:10;;;;;;;8.15;5.28;;;;;;;;;;5023346;28;20283;-66
2023/09/30 06:00:37;;;;;;;9.90;5.75;;;;;;;;;;5025812;28;20206;-66
2023/09/30 06:03:06;;;;;;;86.40;9.98;;;;;;;;;;5021842;28;20259;-66
2023/09/30 06:05:33;;;;;;;20.15;7.57;;;;;;;;;;5025959;28;20193;-66
2023/09/30 06:08:02;;;;;;;18.88;7.50;;;;;;;;;;5025390;28;20212;-66
2023/09/30 06:10:29;;;;;;;6.47;5.88;;;;;;;;;;5023288;28;20212;-66
2023/09/30 06:12:58;;;;;;;6.60;5.60;;;;;;;;;;5021664;28;20259;-66
2023/09/30 06:15:25;;;;;;;6.80;6.20;;;;;;;;;;5018161;28;20217;-66
2023/09/30 06:17:53;;;;;;;13.68;6.63;;;;;;;;;;5021996;28;20208;-67
2023/09/30 06:20:30;;;;;;;25.85;6.80;;;;;;;;;;5020450;28;20207;-67
2023/09/30 06:22:57;;;;;;;10.15;5.85;;;;;;;;;;5023564;28;20214;-67
2023/09/30 06:25:25;;;;;;;227.02;14.75;;;;;;;;;;5023288;28;20197;-66
2023/09/30 06:27:52;;;;;;;46.60;7.82;;;;;;;;;;5018268;28;20275;-66
2023/09/30 06:30:20;;;;;;;7.68;6.25;;;;;;;;;;5018816;28;20200;-66
2023/09/30 06:32:49;;;;;;;22.33;6.85;;;;;;;;;;5018249;28;20225;-66
2023/09/30 06:35:16;;;;;;;8.67;5.43;;;;;;;;;;5018923;28;20235;-67
2023/09/30 06:37:45;;;;;;;11.45;5.82;;;;;;;;;;5022162;28;20201;-66
2023/09/30 06:40:12;;;;;;;15.32;5.00;;;;;;;;;;5022298;28;20303;-66
2023/09/30 06:42:40;;;;;;;4.78;4.30;;;;;;;;;;5023525;28;20215;-66
2023/09/30 06:45:09;;;;;;;4.88;4.53;;;;;;;;;;5018194;28;20205;-66
2023/09/30 06:47:37;;;;;;;4.65;4.28;;;;;;;;;;5024215;28;20277;-66
2023/09/30 06:50:08;;;;;;;4.60;4.30;;;;;;;;;;5016917;28;20212;-66
2023/09/30 06:52:36;;;;;;;4.78;4.38;;;;;;;;;;5015031;28;20261;-66
2023/09/30 06:55:04;;;;;;;46.35;6.30;;;;;;;;;;5020967;28;20221;-66
2023/09/30 06:57:31;;;;;;;14.40;4.60;;;;;;;;;;5022699;28;20204;-66
2023/09/30 06:59:58;;;;;;;31.45;5.43;;;;;;;;;;5028253;28;20211;-66
2023/09/30 07:02:25;;;;;;;474.58;15.10;;;;;;;;;;5027154;28;20377;-66
2023/09/30 07:04:53;;;;;;;441.85;14.80;;;;;;;;;;5021808;28;20203;-66
2023/09/30 07:07:21;;;;;;;190.52;8.20;;;;;;;;;;5020469;28;20203;-67
2023/09/30 07:09:49;;;;;;;73.03;6.68;;;;;;;;;;5022221;28;20208;-66
2023/09/30 07:12:16;;;;;;;94.65;6.38;;;;;;;;;;5025400;28;20204;-66
2023/09/30 07:14:46;;;;;;;19.88;4.85;;;;;;;;;;5020242;28;20227;-66
2023/09/30 07:17:14;;;;;;;16.33;4.45;;;;;;;;;;5017451;28;20212;-66
2023/09/30 07:19:41;;;;;;;7.15;4.20;;;;;;;;;;5020961;28;20390;-66
2023/09/30 07:22:08;;;;;;;4.53;4.07;;;;;;;;;;5021919;28;20208;-66
2023/09/30 07:24:36;;;;;;;22.30;4.88;;;;;;;;;;5023908;28;20200;-66
2023/09/30 07:27:03;;;;;;;47.92;5.10;;;;;;;;;;5024902;28;20231;-66
2023/09/30 07:29:31;;;;;;;137.43;7.78;;;;;;;;;;5018468;28;20203;-66
2023/09/30 07:31:58;;;;;;;112.72;6.82;;;;;;;;;;5020236;28;20777;-67
2023/09/30 07:34:29;;;;;;;301.83;10.93;;;;;;;;;;5022931;28;20244;-67
2023/09/30 07:36:57;;;;;;;25.33;4.93;;;;;;;;;;5023237;28;20205;-66
2023/09/30 07:39:24;;;;;;;203.20;9.73;;;;;;;;;;5020227;28;20204;-66
2023/09/30 07:41:53;;;;;;;4.10;3.53;;;;;;;;;;5019028;28;20209;-66
2023/09/30 07:44:20;;;;;;;6.88;3.70;;;;;;;;;;5021959;28;20195;-66
2023/09/30 07:46:48;;;;;;;7.10;3.58;;;;;;;;;;5017728;28;20216;-66
2023/09/30 07:49:15;;;;;;;20.42;4.63;;;;;;;;;;5016812;28;20216;-66
2023/09/30 07:51:42;;;;;;;5.25;3.78;;;;;;;;;;5019295;28;20208;-66
2023/09/30 07:54:09;;;;;;;3.70;3.40;;;;;;;;;;5016741;28;20215;-66
2023/09/30 07:56:37;;;;;;;3.85;3.55;;;;;;;;;;5020699;28;20212;-66
2023/09/30 07:59:06;;;;;;;3.10;2.90;;;;;;;;;;5017054;28;20200;-65
2023/09/30 08:01:33;;;;;;;44.88;5.32;;;;;;;;;;5022500;28;20243;-65
2023/09/30 08:04:01;;;;;;;7.28;4.20;;;;;;;;;;5019632;28;20196;-67
2023/09/30 08:06:28;;;;;;;3.88;3.58;;;;;;;;;;5021128;28;20209;-66
2023/09/30 08:08:56;;;;;;;6.25;4.60;;;;;;;;;;5017394;28;20318;-65
2023/09/30 08:11:27;;;;;;;8.23;4.35;;;;;;;;;;5018172;28;20205;-66
2023/09/30 08:13:54;;;;;;;7.05;4.18;;;;;;;;;;5016514;28;20196;-65
2023/09/30 08:16:23;;;;;;;15.30;4.88;;;;;;;;;;5018592;28;20227;-65
2023/09/30 08:18:51;;;;;;;11.40;4.18;;;;;;;;;;5017380;28;20204;-66
2023/09/30 08:21:18;;;;;;;52.55;6.07;;;;;;;;;;5017638;28;20216;-65
2023/09/30 08:23:45;;;;;;;7.95;4.50;;;;;;;;;;5017639;28;20525;-66
2023/09/30 08:26:13;;;;;;;16.73;4.88;;;;;;;;;;5018205;28;20235;-65
2023/09/30 08:28:41;;;;;;;5.15;4.65;;;;;;;;;;5024804;28;20200;-65
2023/09/30 08:31:09;;;;;;;16.73;5.70;;;;;;;;;;5020707;28;20213;-65
2023/09/30 08:33:39;;;;;;;12.68;4.88;;;;;;;;;;5029872;28;20208;-66
2023/09/30 08:36:08;;;;;;;7.28;4.65;;;;;;;;;;5023968;28;21057;-66
2023/09/30 08:38:35;;;;;;;4.30;3.92;;;;;;;;;;5015090;28;20205;-66
2023/09/30 08:41:03;;;;;;;64.85;6.90;;;;;;;;;;5022988;28;20204;-65
2023/09/30 08:43:31;;;;;;;6.15;5.55;;;;;;;;;;5022406;28;20201;-66
2023/09/30 08:45:59;;;;;;;29.50;5.47;;;;;;;;;;5024731;28;20200;-67
2023/09/30 08:48:27;;;;;;;4.18;3.88;;;;;;;;;;5030947;28;20207;-65
2023/09/30 08:50:57;;;;;;;4.28;3.90;;;;;;;;;;5021422;28;20209;-65
2023/09/30 08:53:24;;;;;;;6.85;4.57;;;;;;;;;;5029517;28;20200;-65
2023/09/30 08:55:54;;;;;;;4.70;4.40;;;;;;;;;;5024771;28;20246;-65
2023/09/30 08:58:24;;;;;;;4.40;4.00;;;;;;;;;;5025224;28;20231;-72
2023/09/30 09:00:52;;;;;;;8.13;5.22;;;;;;;;;;5027542;28;20210;-71
2023/09/30 09:03:20;;;;;;;5.13;4.65;;;;;;;;;;5032646;28;20289;-73
2023/09/30 09:05:47;;;;;;;5.57;5.18;;;;;;;;;;5018809;28;20213;-73
2023/09/30 09:08:16;;;;;;;4.07;3.58;;;;;;;;;;5031667;28;20209;-71
2023/09/30 09:10:51;;;;;;;5.13;4.72;;;;;;;;;;5020273;28;20212;-73
2023/09/30 09:13:18;;;;;;;8.88;5.45;;;;;;;;;;5014928;28;20204;-73
2023/09/30 09:15:45;;;;;;;3.58;3.28;;;;;;;;;;5022696;28;20224;-72
2023/09/30 09:18:14;;;;;;;21.50;5.25;;;;;;;;;;5027613;28;20207;-73
2023/09/30 09:20:41;;;;;;;4.60;4.25;;;;;;;;;;5029086;28;20205;-72
2023/09/30 09:23:08;;;;;;;5.53;5.03;;;;;;;;;;5024134;28;20227;-72
2023/09/30 09:25:40;;;;;;;5.50;5.00;;;;;;;;;;5028345;28;20229;-71
2023/09/30 09:28:07;;;;;;;5.53;5.03;;;;;;;;;;5019781;28;20201;-72
2023/09/30 09:30:34;;;;;;;6.10;5.57;;;;;;;;;;5026578;28;20196;-71
2023/09/30 09:33:02;;;;;;;9.05;5.68;;;;;;;;;;5021449;28;20200;-72
2023/09/30 09:35:30;;;;;;;5.50;5.10;;;;;;;;;;5025932;28;20223;-72
2023/09/30 09:38:01;;;;;;;6.47;5.03;;;;;;;;;;5021841;28;20283;-72
2023/09/30 09:40:29;;;;;;;4.50;4.10;;;;;;;;;;5019043;28;20239;-72
2023/09/30 09:42:58;;;;;;;3.60;3.28;;;;;;;;;;5021110;28;20208;-72
2023/09/30 09:45:26;;;;;;;3.70;3.40;;;;;;;;;;5021351;28;20196;-72
2023/09/30 09:47:54;;;;;;;4.30;3.90;;;;;;;;;;5022369;28;20496;-71
2023/09/30 09:50:22;;;;;;;4.70;4.30;;;;;;;;;;5022479;28;20625;-72
2023/09/30 09:52:50;;;;;;;5.43;4.93;;;;;;;;;;5027627;28;20208;-71
2023/09/30 09:55:17;;;;;;;4.85;4.45;;;;;;;;;;5025381;28;20300;-71
2023/09/30 09:57:44;;;;;;;5.50;3.90;;;;;;;;;;5016681;28;20200;-72
2023/09/30 10:00:15;;;;;;;4.40;3.85;;;;;;;;;;5027436;28;20214;-72
2023/09/30 10:02:42;;;;;;;4.18;3.78;;;;;;;;;;5021314;28;20270;-69
2023/09/30 10:05:11;;;;;;;3.90;3.60;;;;;;;;;;5019817;28;20215;-72
2023/09/30 10:07:40;;;;;;;4.47;4.07;;;;;;;;;;5026902;28;20233;-65
2023/09/30 10:10:09;;;;;;;4.03;3.47;;;;;;;;;;5020403;28;20205;-65
2023/09/30 10:12:40;;;;;;;5.18;4.70;;;;;;;;;;5024584;28;20257;-65
2023/09/30 10:15:22;;;;;;;5.28;4.78;;;;;;;;;;5019355;28;20216;-65
2023/09/30 10:18:00;;;;;;;4.07;3.72;;;;;;;;;;5020788;28;20556;-65
2023/09/30 10:20:29;;;;;;;5.00;4.07;;;;;;;;;;5020840;28;20210;-66
2023/09/30 10:23:10;;;;;;;3.55;3.25;;;;;;;;;;5020944;28;20204;-65
2023/09/30 10:25:39;;;;;;;5.70;3.90;;;;;;;;;;5021026;28;20211;-65
2023/09/30 10:28:20;;;;;;;3.88;3.00;;;;;;;;;;5028714;28;20216;-72
2023/09/30 10:31:02;;;;;;;3.45;2.78;;;;;;;;;;5023319;28;20203;-69
2023/09/30 10:33:31;;;;;;;3.85;3.45;;;;;;;;;;5023798;28;20200;-72
2023/09/30 10:35:58;;;;;;;4.00;3.10;;;;;;;;;;5021093;28;20224;-72
2023/09/30 10:38:38;;;;;;;3.70;2.90;;;;;;;;;;5023035;28;20211;-72
2023/09/30 10:41:05;;;;;;;4.43;3.38;;;;;;;;;;5019210;28;20210;-71
2023/09/30 10:43:32;;;;;;;3.67;3.00;;;;;;;;;;5020015;28;20227;-72
2023/09/30 10:46:00;;;;;;;3.28;2.97;;;;;;;;;;5020961;28;20205;-72
2023/09/30 10:48:41;;;;;;;3.85;3.10;;;;;;;;;;5019124;28;20224;-72
2023/09/30 10:51:12;;;;;;;2.63;2.42;;;;;;;;;;5021296;28;20227;-71
2023/09/30 10:53:51;;;;;;;2.90;2.42;;;;;;;;;;5018367;28;20212;-71
2023/09/30 10:56:18;;;;;;;2.85;2.40;;;;;;;;;;5019962;28;20228;-71
2023/09/30 10:58:46;;;;;;;3.30;2.50;;;;;;;;;;5027297;28;20219;-71
2023/09/30 11:01:14;;;;;;;2.95;2.60;;;;;;;;;;5023119;28;20212;-70
2023/09/30 11:03:42;;;;;;;2.38;2.17;;;;;;;;;;5022892;28;20200;-70
2023/09/30 11:06:13;;;;;;;2.63;2.35;;;;;;;;;;5023039;28;20207;-71
2023/09/30 11:08:45;;;;;;;2.75;2.30;;;;;;;;;;5020438;28;20218;-70
2023/09/30 11:11:12;;;;;;;3.08;2.40;;;;;;;;;;5021428;28;20266;-70
2023/09/30 11:13:40;;;;;;;4.20;2.67;;;;;;;;;;5026687;28;20271;-71
2023/09/30 11:16:08;;;;;;;2.90;2.30;;;;;;;;;;5021533;28;20223;-72
2023/09/30 11:18:37;;;;;;;3.65;2.35;;;;;;;;;;5022884;28;20212;-71
2023/09/30 11:21:06;;;;;;;2.83;2.42;;;;;;;;;;5021323;28;20228;-71
2023/09/30 11:23:33;;;;;;;3.05;2.38;;;;;;;;;;5024861;28;20203;-71
2023/09/30 11:26:01;;;;;;;3.17;2.70;;;;;;;;;;5020167;28;20220;-69
2023/09/30 11:28:36;;;;;;;4.10;3.03;;;;;;;;;;5024194;28;20205;-70
2023/09/30 11:31:03;;;;;;;2.67;2.38;;;;;;;;;;5024477;28;20203;-70
2023/09/30 11:33:31;;;;;;;3.55;2.70;;;;;;;;;;5017737;28;20220;-71
2023/09/30 11:36:01;;;;;;;3.15;2.40;;;;;;;;;;5022800;28;20278;-71
2023/09/30 11:38:30;;;;;;;4.47;3.00;;;;;;;;;;5020369;28;20208;-71
2023/09/30 11:41:02;;;;;;;3.88;3.10;;;;;;;;;;5024747;28;20211;-71
2023/09/30 11:43:29;;;;;;;3.72;2.50;;;;;;;;;;5023224;28;20213;-70
2023/09/30 11:46:05;;;;;;;4.60;2.88;;;;;;;;;;5020202;28;20215;-70
2023/09/30 11:48:32;;;;;;;7.13;3.78;;;;;;;;;;5021902;28;20208;-71
2023/09/30 11:51:02;;;;;;;5.68;4.40;;;;;;;;;;5023313;28;20200;-70
2023/09/30 11:53:31;;;;;;;6.18;4.32;;;;;;;;;;5021340;28;20216;-70
2023/09/30 11:55:59;;;;;;;5.93;4.28;;;;;;;;;;5022523;28;20248;-70
2023/09/30 11:58:27;;;;;;;4.93;3.63;;;;;;;;;;5025090;28;20216;-70
2023/09/30 12:00:59;;;;;;;8.20;4.43;;;;;;;;;;5019811;28;20287;-70
2023/09/30 12:03:27;;;;;;;5.57;4.00;;;;;;;;;;5019629;28;20207;-71
2023/09/30 12:05:55;;;;;;;5.15;3.83;;;;;;;;;;5016935;28;20206;-69
2023/09/30 12:08:22;;;;;;;5.88;4.63;;;;;;;;;;5020522;28;20239;-70
2023/09/30 12:10:51;;;;;;;5.40;4.05;;;;;;;;;;5018095;28;20259;-70
2023/09/30 12:13:19;;;;;;;4.53;3.83;;;;;;;;;;5014489;28;20303;-70
2023/09/30 12:15:48;;;;;;;6.55;4.38;;;;;;;;;;5020328;28;20212;-70
2023/09/30 12:18:17;;;;;;;7.25;4.38;;;;;;;;;;5026177;28;20208;-69
2023/09/30 12:20:44;;;;;;;7.40;4.60;;;;;;;;;;5017008;28;20207;-69
2023/09/30 12:23:11;;;;;;;6.10;3.97;;;;;;;;;;5020551;28;20211;-69
2023/09/30 12:25:38;;;;;;;5.68;4.13;;;;;;;;;;5019730;28;20216;-69
2023/09/30 12:28:07;;;;;;;4.90;4.07;;;;;;;;;;5016819;28;20207;-63
2023/09/30 12:30:34;;;;;;;5.88;4.50;;;;;;;;;;5018626;28;20193;-64
2023/09/30 12:33:01;;;;;;;5.85;4.40;;;;;;;;;;5021264;28;20207;-63
2023/09/30 12:35:28;;;;;;;4.80;4.30;;;;;;;;;;5018360;28;20209;-62
2023/09/30 12:37:55;;;;;;;6.40;4.50;;;;;;;;;;5019651;28;20315;-63
2023/09/30 12:40:23;;;;;;;4.47;3.72;;;;;;;;;;5022303;28;20208;-63
2023/09/30 12:42:50;;;;;;;5.70;3.75;;;;;;;;;;5020249;28;20210;-63
2023/09/30 12:45:18;;;;;;;5.22;3.85;;;;;;;;;;5027125;28;20219;-63
2023/09/30 12:47:47;;;;;;;5.70;3.88;;;;;;;;;;5017202;28;20269;-63
2023/09/30 12:50:14;;;;;;;5.68;3.92;;;;;;;;;;5021519;28;20209;-63
2023/09/30 12:52:41;;;;;;;5.82;3.65;;;;;;;;;;5018188;28;20212;-62
2023/09/30 12:55:09;;;;;;;5.03;3.53;;;;;;;;;;5019334;28;20319;-62
2023/09/30 12:57:36;;;;;;;5.55;3.78;;;;;;;;;;5020868;28;20263;-65
2023/09/30 13:00:04;;;;;;;5.80;4.07;;;;;;;;;;5022580;28;20296;-62
2023/09/30 13:02:32;;;;;;;6.75;3.92;;;;;;;;;;5017336;28;20236;-62
2023/09/30 13:04:59;;;;;;;4.82;3.83;;;;;;;;;;5016734;28;20204;-62
2023/09/30 13:07:26;;;;;;;5.40;3.38;;;;;;;;;;5022206;28;20208;-63
2023/09/30 13:09:54;;;;;;;4.93;3.75;;;;;;;;;;5019726;28;20204;-62
2023/09/30 13:12:21;;;;;;;5.10;3.70;;;;;;;;;;5017314;28;20218;-63
2023/09/30 13:14:48;;;;;;;4.65;3.33;;;;;;;;;;5020491;28;20218;-62
2023/09/30 13:17:16;;;;;;;5.28;3.17;;;;;;;;;;5025804;28;20232;-63
2023/09/30 13:19:44;;;;;;;5.55;3.17;;;;;;;;;;5023009;28;20231;-63
2023/09/30 13:22:12;;;;;;;4.97;3.42;;;;;;;;;;5022153;28;20208;-62
2023/09/30 13:24:42;;;;;;;4.22;3.05;;;;;;;;;;5023361;28;20221;-67
2023/09/30 13:27:09;;;;;;;5.03;3.80;;;;;;;;;;5025583;28;20336;-61
2023/09/30 13:29:36;;;;;;;5.40;3.30;;;;;;;;;;5021030;28;20208;-62
2023/09/30 13:32:04;;;;;;;4.70;3.30;;;;;;;;;;5021626;28;20231;-62
2023/09/30 13:34:31;;;;;;;4.35;3.40;;;;;;;;;;5023223;28;20293;-61
2023/09/30 13:36:59;;;;;;;5.80;3.30;;;;;;;;;;5021553;28;20479;-68
2023/09/30 13:39:27;;;;;;;6.43;4.00;;;;;;;;;;5024295;28;20267;-67
2023/09/30 13:41:54;;;;;;;6.70;3.67;;;;;;;;;;5021688;28;20211;-69
2023/09/30 13:44:21;;;;;;;5.65;3.45;;;;;;;;;;5023503;28;20334;-68
2023/09/30 13:46:49;;;;;;;5.07;3.47;;;;;;;;;;5020299;28;20456;-69
2023/09/30 13:49:17;;;;;;;4.47;3.33;;;;;;;;;;5019995;28;20227;-69
2023/09/30 13:51:44;;;;;;;5.13;3.40;;;;;;;;;;5021499;28;20292;-69
2023/09/30 13:54:14;;;;;;;5.57;3.50;;;;;;;;;;5022199;28;20204;-69
2023/09/30 13:56:42;;;;;;;3.85;3.08;;;;;;;;;;5021583;28;20226;-69
2023/09/30 13:59:09;;;;;;;5.28;3.40;;;;;;;;;;5024060;28;20274;-69
2023/09/30 14:01:36;;;;;;;4.40;3.42;;;;;;;;;;5024235;28;20234;-69
2023/09/30 14:04:04;;;;;;;4.43;3.28;;;;;;;;;;5020944;28;20220;-69
2023/09/30 14:06:31;;;;;;;5.05;3.30;;;;;;;;;;5021337;28;20209;-68
2023/09/30 14:08:59;;;;;;;5.18;3.47;;;;;;;;;;5020944;28;20201;-67
2023/09/30 14:11:27;;;;;;;4.75;3.25;;;;;;;;;;5020321;28;20300;-68
2023/09/30 14:13:54;;;;;;;5.45;3.55;;;;;;;;;;5018021;28;20292;-68
2023/09/30 14:16:21;;;;;;;5.32;3.70;;;;;;;;;;5019728;28;20228;-68
2023/09/30 14:18:49;;;;;;;4.78;3.38;;;;;;;;;;5020046;28;20932;-68
2023/09/30 14:21:18;;;;;;;4.68;3.55;;;;;;;;;;5017718;28;20216;-69
2023/09/30 14:23:45;;;;;;;5.15;3.22;;;;;;;;;;5024658;28;20205;-69
2023/09/30 14:26:12;;;;;;;4.40;3.42;;;;;;;;;;5023337;28;20251;-69
2023/09/30 14:28:41;;;;;;;4.60;3.05;;;;;;;;;;5021117;28;20303;-69
2023/09/30 14:31:08;;;;;;;5.60;3.15;;;;;;;;;;5022120;28;20537;-69
2023/09/30 14:33:35;;;;;;;3.97;3.05;;;;;;;;;;5023316;28;20208;-69
2023/09/30 14:36:05;;;;;;;4.28;3.45;;;;;;;;;;5021390;28;20204;-67
2023/09/30 14:38:32;;;;;;;3.97;2.85;;;;;;;;;;5020649;28;20205;-69
2023/09/30 14:40:59;;;;;;;5.10;3.30;;;;;;;;;;5018778;28;20477;-69
2023/09/30 14:43:26;;;;;;;4.97;3.28;;;;;;;;;;5022826;28;20196;-69
2023/09/30 14:45:55;;;;;;;4.45;3.42;;;;;;;;;;5022170;28;20231;-67